Sacramento, California
Current Conditions -  °F | °C
As of 6:40 AM on Friday 28 Nov 2014 (Local Time) from KSAC Reporting Station
Moderate Fog Moderate Fog  
Wind Chill: 37°   Ceiling: 100
Heat Index: 37°   Visibility: 0.25mi
Dew Point: 37°   Wind: 0mph
Humidity: 100%   Direction: NA
Pressure: 30.02"   Gusts: NA
Location:  38.58°N, 121.49°W
Report Text: KSAC 281440Z 00000KT 1/4SM FG VV001 03/03 A3002 RMK AO2
Loading
Personal Weather Stations






























Interactive Weather Map New forecast layout! Learn more

10-Day Weather Forecast

Advertisements
Track Severe Weather on mobile